Metar z połowy godziny Komunikat METAR ze strony awiacja.imgw.pl Metar G30 EPSN METAR EPSN 241130Z 30009KT 9999 BKN110 06/01 Q1024 RMK 063 071 6/6=